Time;durP1;ratioP1;P1;durP2;ratioP2;P2;SDS_P1;SDS_P2;PMS_P1;PMS_P2;Temp;Humidity;BMP_temperature;BMP_pressure;BME280_temperature;BME280_humidity;BME280_pressure;Samples;Min_cycle;Max_cycle;Signal;HPM_P1;HPM_P2
2022/10/22 00:02:18;;;;;;;14.45;10.25;;;;;;;5.23;58.93;99974.17;1707659;84;21499;-40
2022/10/22 00:04:43;;;;;;;14.43;10.35;;;;;;;5.23;58.89;99969.34;1699877;84;21281;-40
2022/10/22 00:07:10;;;;;;;14.93;10.45;;;;;;;5.20;58.85;99977.49;1707432;84;20993;-40
2022/10/22 00:09:39;;;;;;;15.25;10.32;;;;;;;5.18;58.94;99966.82;1700416;84;21045;-40
2022/10/22 00:12:06;;;;;;;18.45;10.72;;;;;;;5.18;58.95;99964.13;1707360;84;21499;-40
2022/10/22 00:14:33;;;;;;;18.05;10.70;;;;;;;5.17;58.92;99945.07;1700256;84;21119;-40
2022/10/22 00:16:59;;;;;;;19.42;10.82;;;;;;;5.15;58.94;99948.05;1707300;84;21893;-40
2022/10/22 00:19:27;;;;;;;17.50;10.25;;;;;;;5.15;58.97;99964.73;1700203;84;21027;-40
2022/10/22 00:21:57;;;;;;;16.35;10.88;;;;;;;5.13;58.97;99958.89;1707262;84;21522;-40
2022/10/22 00:24:24;;;;;;;18.42;10.63;;;;;;;5.12;59.00;99952.72;1700349;84;21013;-40
2022/10/22 00:26:51;;;;;;;18.40;11.55;;;;;;;5.13;58.99;99929.32;1707463;84;21040;-40
2022/10/22 00:29:19;;;;;;;16.12;10.10;;;;;;;5.09;59.03;99931.02;1700087;84;21248;-40
2022/10/22 00:31:48;;;;;;;19.20;10.25;;;;;;;5.08;59.05;99921.39;1707243;84;20996;-40
2022/10/22 00:34:17;;;;;;;16.32;10.93;;;;;;;5.08;59.06;99920.81;1700189;84;21004;-40
2022/10/22 00:36:44;;;;;;;13.68;9.93;;;;;;;5.08;59.08;99926.77;1707512;84;21566;-40
2022/10/22 00:39:12;;;;;;;15.80;10.60;;;;;;;5.07;59.15;99931.89;1700422;84;21585;-40
2022/10/22 00:41:40;;;;;;;16.10;10.38;;;;;;;5.10;59.22;99932.61;1707632;84;21239;-40
2022/10/22 00:44:07;;;;;;;16.73;11.10;;;;;;;5.13;59.27;99926.64;1700208;84;21546;-40
2022/10/22 00:46:35;;;;;;;15.03;10.35;;;;;;;5.16;59.09;99916.59;1707208;84;21020;-40
2022/10/22 00:49:02;;;;;;;14.33;10.23;;;;;;;5.18;59.01;99909.03;1700131;83;21625;-40
2022/10/22 00:51:32;;;;;;;15.68;10.45;;;;;;;5.16;59.04;99903.95;1700425;84;21076;-40
2022/10/22 00:54:03;;;;;;;14.03;10.10;;;;;;;5.16;59.06;99897.23;1700368;84;21187;-40
2022/10/22 00:56:31;;;;;;;16.70;10.45;;;;;;;5.16;59.12;99885.14;1700332;84;20993;-40
2022/10/22 00:58:59;;;;;;;21.23;10.68;;;;;;;5.16;59.03;99889.72;1700494;84;21335;-40
2022/10/22 01:01:29;;;;;;;18.07;10.75;;;;;;;5.15;58.99;99884.10;1700420;84;21026;-39
2022/10/22 01:03:55;;;;;;;;;;;;;;;5.12;59.03;99881.50;1702979;84;21017;-40
2022/10/22 01:06:26;;;;;;;17.57;10.15;;;;;;;5.12;59.11;99887.42;1700681;84;21251;-40
2022/10/22 01:09:17;;;;;;;17.02;10.75;;;;;;;5.02;59.36;99885.00;1697857;84;21052;-40
2022/10/22 01:12:06;;;;;;;17.60;10.53;;;;;;;5.04;59.40;99888.16;1700772;84;20989;-40
2022/10/22 01:15:06;;;;;;;15.53;10.23;;;;;;;5.04;59.39;99881.44;1700661;84;21032;-39
2022/10/22 01:18:10;;;;;;;17.23;10.45;;;;;;;5.04;59.46;99877.41;1700652;84;21270;-40
2022/10/22 01:21:03;;;;;;;15.23;10.45;;;;;;;5.02;59.54;99874.25;1650806;86;22021;-40
2022/10/22 01:24:01;;;;;;;17.73;10.50;;;;;;;5.01;59.66;99869.42;1663649;86;20962;-40
2022/10/22 01:27:03;;;;;;;18.57;10.70;;;;;;;5.03;59.68;99875.30;1641569;87;21167;-40
2022/10/22 01:29:44;;;;;;;16.62;10.10;;;;;;;5.04;59.68;99869.34;1669043;86;21660;-40
2022/10/22 01:32:15;;;;;;;16.25;10.40;;;;;;;5.04;59.70;99868.00;1641876;87;21124;-40
2022/10/22 01:34:46;;;;;;;19.67;11.33;;;;;;;5.04;59.71;99866.66;1669117;86;21153;-40
2022/10/22 01:37:13;;;;;;;17.48;10.55;;;;;;;5.05;59.72;99861.53;1641860;87;21112;-40
2022/10/22 01:39:41;;;;;;;15.63;10.45;;;;;;;5.07;59.72;99859.34;1669166;86;20969;-39
2022/10/22 01:42:08;;;;;;;15.88;10.32;;;;;;;5.08;59.71;99860.35;1642085;87;21073;-40
2022/10/22 01:44:40;;;;;;;17.15;10.32;;;;;;;5.07;59.69;99860.68;1669033;86;21068;-40
2022/10/22 01:47:43;;;;;;;17.52;10.82;;;;;;;5.08;59.76;99864.95;1641153;87;21318;-40
2022/10/22 01:50:38;;;;;;;15.85;10.60;;;;;;;5.09;59.73;99857.11;1713035;83;21032;-40
2022/10/22 01:53:35;;;;;;;18.73;10.98;;;;;;;5.08;59.80;99843.46;1687276;85;21071;-40
2022/10/22 01:56:16;;;;;;;14.25;9.90;;;;;;;5.08;59.81;99847.49;1654462;85;21098;-40
2022/10/22 01:59:01;;;;;;;18.55;10.65;;;;;;;5.05;59.88;99853.47;1715974;83;21071;-40
2022/10/22 02:03:50;;;;;;;15.23;9.93;;;;;;;5.09;60.00;99848.50;1830204;78;22543;-40
2022/10/22 02:06:20;;;;;;;16.50;10.00;;;;;;;5.01;60.03;99849.82;1802067;79;21018;-40
2022/10/22 02:08:47;;;;;;;15.00;9.50;;;;;;;5.09;59.97;99842.33;1803252;79;21213;-40
2022/10/22 02:11:16;;;;;;;15.32;9.90;;;;;;;5.20;59.74;99836.38;1772620;79;20927;-40
2022/10/22 02:13:47;;;;;;;20.97;10.28;;;;;;;5.25;59.67;99830.06;1803333;79;20927;-39
2022/10/22 02:16:22;;;;;;;15.93;10.58;;;;;;;5.29;59.62;99832.36;1803426;79;20970;-39
2022/10/22 02:18:51;;;;;;;15.75;10.35;;;;;;;5.32;59.48;99829.06;1803174;79;21544;-40
2022/10/22 02:21:19;;;;;;;14.47;10.00;;;;;;;5.33;59.24;99819.88;1803332;79;21144;-40
2022/10/22 02:23:46;;;;;;;16.10;9.83;;;;;;;5.33;59.15;99813.16;1803171;79;20976;-40
2022/10/22 02:26:39;;;;;;;15.98;10.23;;;;;;;5.31;59.13;99814.58;1803300;79;20970;-40
2022/10/22 02:29:16;;;;;;;16.42;9.70;;;;;;;5.30;59.14;99824.55;1802404;79;21003;-39
2022/10/22 02:31:44;;;;;;;16.70;10.15;;;;;;;5.27;59.21;99822.48;1803191;79;21003;-40
2022/10/22 02:34:15;;;;;;;17.75;10.80;;;;;;;5.25;59.20;99821.45;1803076;79;21070;-40
2022/10/22 02:36:44;;;;;;;15.15;9.53;;;;;;;5.25;59.13;99816.63;1803085;79;20963;-40
2022/10/22 02:39:11;;;;;;;14.18;9.80;;;;;;;5.24;59.18;99815.03;1802991;79;21070;-40
2022/10/22 02:41:37;;;;;;;17.65;9.98;;;;;;;5.23;59.15;99800.00;1803021;79;20959;-40
2022/10/22 02:44:08;;;;;;;15.35;10.08;;;;;;;5.24;59.13;99780.09;1803156;79;21488;-40
2022/10/22 02:46:39;;;;;;;15.72;10.18;;;;;;;5.23;59.12;99779.84;1803142;79;21210;-40
2022/10/22 02:49:06;;;;;;;17.40;10.28;;;;;;;5.19;59.18;99778.34;1802944;79;20880;-40
2022/10/22 02:51:34;;;;;;;16.60;10.23;;;;;;;5.16;59.22;99780.87;1803007;79;20972;-39
2022/10/22 02:54:00;;;;;;;14.75;9.45;;;;;;;5.14;59.34;99781.72;1803047;79;21544;-40
2022/10/22 02:56:27;;;;;;;14.15;9.98;;;;;;;5.14;59.34;99784.41;1803160;79;21032;-40
2022/10/22 02:58:54;;;;;;;16.90;9.90;;;;;;;5.13;59.34;99781.51;1802985;79;21214;-39
2022/10/22 03:01:21;;;;;;;14.05;9.60;;;;;;;5.12;59.35;99774.55;1802964;79;20958;-39
2022/10/22 03:03:49;;;;;;;16.20;9.95;;;;;;;5.09;59.42;99772.46;1792952;79;21010;-40
2022/10/22 03:06:16;;;;;;;14.78;10.08;;;;;;;5.09;59.52;99771.13;1792179;80;20998;-39
2022/10/22 03:08:45;;;;;;;15.60;10.53;;;;;;;5.07;59.54;99770.66;1792403;79;20904;-40
2022/10/22 03:11:11;;;;;;;14.83;9.33;;;;;;;5.08;59.66;99779.73;1792219;80;21226;-39
2022/10/22 03:13:38;;;;;;;17.10;9.18;;;;;;;5.10;59.68;99782.11;1791886;79;20987;-40
2022/10/22 03:16:06;;;;;;;14.30;9.75;;;;;;;5.12;59.72;99787.98;1791431;80;20960;-39
2022/10/22 03:18:34;;;;;;;16.15;9.43;;;;;;;5.14;59.58;99783.07;1791874;79;20975;-39
2022/10/22 03:21:11;;;;;;;13.95;9.55;;;;;;;5.15;59.61;99784.66;1791701;79;21031;-40
2022/10/22 03:23:40;;;;;;;15.53;10.15;;;;;;;5.16;59.62;99779.53;1791554;79;21232;-40
2022/10/22 03:26:07;;;;;;;19.48;9.90;;;;;;;5.19;59.63;99774.86;1791723;79;21004;-40
2022/10/22 03:28:35;;;;;;;16.02;9.60;;;;;;;5.21;59.56;99768.63;1791697;79;20971;-40
2022/10/22 03:31:02;;;;;;;15.75;9.65;;;;;;;5.23;59.55;99770.44;1791913;80;21499;-40
2022/10/22 03:33:30;;;;;;;16.65;9.95;;;;;;;5.24;59.52;99767.99;1791671;80;21027;-40
2022/10/22 03:35:57;;;;;;;18.02;9.40;;;;;;;5.25;59.61;99770.92;1791429;80;23123;-40
2022/10/22 03:38:25;;;;;;;16.17;9.65;;;;;;;5.29;59.60;99758.44;1791565;80;21019;-40
2022/10/22 03:40:51;;;;;;;14.75;9.33;;;;;;;5.31;59.45;99753.55;1791397;80;20998;-40
2022/10/22 03:43:18;;;;;;;15.50;10.03;;;;;;;5.33;59.39;99751.32;1791507;79;21016;-40
2022/10/22 03:45:45;;;;;;;14.93;8.95;;;;;;;5.33;59.32;99749.97;1791529;80;21026;-39
2022/10/22 03:48:12;;;;;;;15.05;9.48;;;;;;;5.34;59.33;99744.05;1791511;80;21121;-40
2022/10/22 03:50:39;;;;;;;13.85;8.53;;;;;;;5.36;59.39;99739.95;1791466;80;20963;-40
2022/10/22 03:53:09;;;;;;;13.98;9.03;;;;;;;5.38;59.35;99736.38;1791521;80;20988;-40
2022/10/22 03:55:34;;;;;;;15.38;8.73;;;;;;;5.40;59.38;99740.91;1791449;79;20951;-40
2022/10/22 03:58:01;;;;;;;13.78;9.05;;;;;;;5.44;59.28;99739.16;1791334;79;20955;-40
2022/10/22 04:00:28;;;;;;;13.35;8.08;;;;;;;5.48;59.31;99750.06;1791547;80;21136;-39
2022/10/22 04:02:56;;;;;;;15.40;8.70;;;;;;;5.51;59.22;99756.17;1791368;79;21027;-40
2022/10/22 04:05:23;;;;;;;16.20;8.63;;;;;;;5.54;59.25;99753.64;1791607;79;21507;-40
2022/10/22 04:07:50;;;;;;;13.18;8.10;;;;;;;5.57;59.20;99750.86;1791404;80;21537;-40
2022/10/22 04:10:18;;;;;;;17.67;8.70;;;;;;;5.60;59.17;99752.94;1791638;80;21577;-40
2022/10/22 04:12:48;;;;;;;14.95;8.25;;;;;;;5.63;59.05;99746.36;1791420;80;21225;-40
2022/10/22 04:15:16;;;;;;;13.15;8.73;;;;;;;5.65;59.03;99742.02;1791339;80;21537;-40
2022/10/22 04:17:43;;;;;;;17.42;8.50;;;;;;;5.67;58.91;99747.85;1791265;80;20951;-40
2022/10/22 04:20:11;;;;;;;13.85;9.03;;;;;;;5.67;58.90;99733.85;1791385;79;20916;-40
2022/10/22 04:22:38;;;;;;;13.80;8.38;;;;;;;5.67;58.82;99720.95;1791660;80;21028;-40
2022/10/22 04:25:06;;;;;;;18.10;8.30;;;;;;;5.65;58.78;99714.57;1791613;79;21250;-40
2022/10/22 04:27:33;;;;;;;18.25;9.10;;;;;;;5.65;58.79;99715.12;1791577;79;21062;-40
2022/10/22 04:30:00;;;;;;;16.85;8.05;;;;;;;5.63;58.83;99714.63;1791834;80;21002;-40
2022/10/22 04:32:27;;;;;;;17.17;7.70;;;;;;;5.60;58.78;99717.42;1791446;80;21490;-40
2022/10/22 04:34:53;;;;;;;14.10;8.00;;;;;;;5.60;58.77;99711.25;1791700;79;20983;-40
2022/10/22 04:37:20;;;;;;;13.60;8.08;;;;;;;5.58;58.71;99700.00;1791382;79;21236;-40
2022/10/22 04:39:47;;;;;;;14.05;8.60;;;;;;;5.57;58.81;99698.41;1791283;80;21056;-41
2022/10/22 04:42:14;;;;;;;15.48;7.85;;;;;;;5.58;58.72;99689.24;1791481;80;21524;-40
2022/10/22 04:44:40;;;;;;;13.93;8.28;;;;;;;5.57;58.83;99687.11;1791535;79;21026;-39
2022/10/22 04:47:08;;;;;;;15.10;8.40;;;;;;;5.55;58.90;99683.96;1791378;80;20941;-40
2022/10/22 04:49:36;;;;;;;15.78;8.45;;;;;;;5.56;58.97;99684.20;1791472;79;21509;-40
2022/10/22 04:52:03;;;;;;;14.60;8.40;;;;;;;5.57;58.93;99666.94;1791365;80;21008;-40
2022/10/22 04:54:31;;;;;;;15.38;8.65;;;;;;;5.57;58.97;99668.83;1791375;80;20958;-40
2022/10/22 04:56:58;;;;;;;18.12;8.93;;;;;;;5.59;58.99;99679.52;1791387;79;20994;-40
2022/10/22 04:59:25;;;;;;;12.85;8.00;;;;;;;5.61;59.03;99682.70;1791502;80;21085;-40
2022/10/22 05:01:52;;;;;;;14.33;8.03;;;;;;;5.65;59.01;99679.60;1791424;80;21135;-40
2022/10/22 05:04:19;;;;;;;21.17;8.83;;;;;;;5.65;58.93;99694.39;1798302;79;21505;-40
2022/10/22 05:06:47;;;;;;;13.03;8.20;;;;;;;5.68;59.06;99694.30;1799796;79;21068;-40
2022/10/22 05:09:17;;;;;;;12.68;8.10;;;;;;;5.70;58.96;99688.06;1800023;79;21020;-40
2022/10/22 05:11:47;;;;;;;9.43;5.90;;;;;;;5.73;58.92;99702.20;1799881;79;21045;-40
2022/10/22 05:14:21;;;;;;;15.83;8.48;;;;;;;5.76;59.09;99708.86;1800245;79;21066;-40
2022/10/22 05:16:50;;;;;;;19.12;8.05;;;;;;;5.78;59.11;99706.63;1799685;79;20883;-39
2022/10/22 05:19:22;;;;;;;14.18;7.95;;;;;;;5.85;59.09;99704.26;1800060;79;21007;-40
2022/10/22 05:21:53;;;;;;;12.33;8.63;;;;;;;5.91;59.13;99711.06;1799955;79;21087;-40
2022/10/22 05:24:22;;;;;;;14.93;8.43;;;;;;;5.95;58.87;99716.06;1800389;79;20966;-40
2022/10/22 05:26:52;;;;;;;13.43;8.15;;;;;;;5.98;58.73;99718.11;1800001;78;21135;-40
2022/10/22 05:29:19;;;;;;;11.22;7.45;;;;;;;6.00;58.75;99718.00;1800301;78;21001;-40
2022/10/22 05:31:46;;;;;;;15.78;7.70;;;;;;;6.06;58.80;99714.59;1799891;79;21421;-40
2022/10/22 05:34:13;;;;;;;16.57;7.60;;;;;;;6.12;58.82;99722.74;1800094;79;20996;-40
2022/10/22 05:36:40;;;;;;;14.87;7.95;;;;;;;6.18;58.74;99728.75;1799934;79;21500;-40
2022/10/22 05:39:07;;;;;;;19.15;8.75;;;;;;;6.22;58.64;99733.72;1799990;79;22070;-40
2022/10/22 05:41:34;;;;;;;13.25;7.62;;;;;;;6.28;58.50;99734.58;1799863;79;21519;-40
2022/10/22 05:44:03;;;;;;;15.35;7.67;;;;;;;6.34;57.89;99734.62;1799897;79;20954;-40
2022/10/22 05:46:33;;;;;;;14.83;8.08;;;;;;;6.35;57.90;99736.20;1799703;79;21464;-40
2022/10/22 05:49:03;;;;;;;12.78;8.33;;;;;;;6.38;57.67;99725.36;1800043;79;20977;-40
2022/10/22 05:51:31;;;;;;;14.50;8.35;;;;;;;6.42;57.84;99727.09;1800159;79;21694;-39
2022/10/22 05:54:00;;;;;;;12.35;7.83;;;;;;;6.49;57.94;99727.36;1799632;79;20992;-40
2022/10/22 05:56:29;;;;;;;14.40;7.33;;;;;;;6.52;57.60;99724.04;1800117;79;20957;-40
2022/10/22 05:58:56;;;;;;;13.25;7.55;;;;;;;6.58;57.46;99725.20;1800056;79;21515;-40
2022/10/22 06:01:26;;;;;;;16.70;7.92;;;;;;;6.61;57.31;99719.16;1800018;78;21557;-40
2022/10/22 06:03:58;;;;;;;15.63;7.55;;;;;;;6.64;57.22;99731.97;1795037;78;20954;-40
2022/10/22 06:06:33;;;;;;;22.45;13.25;;;;;;;6.67;57.22;99725.95;1790903;79;20966;-40
2022/10/22 06:09:08;;;;;;;17.45;8.55;;;;;;;6.72;57.17;99735.20;1791533;80;21472;-40
2022/10/22 06:11:35;;;;;;;13.10;7.78;;;;;;;6.77;57.09;99737.72;1791329;79;21511;-39
2022/10/22 06:14:03;;;;;;;12.35;7.67;;;;;;;6.79;56.92;99739.52;1791350;80;21477;-40
2022/10/22 06:16:30;;;;;;;12.68;7.47;;;;;;;6.79;57.22;99736.27;1791470;80;21114;-40
2022/10/22 06:19:02;;;;;;;16.57;8.43;;;;;;;6.81;57.28;99738.64;1791125;79;21009;-40
2022/10/22 06:21:30;;;;;;;11.75;7.58;;;;;;;6.85;56.96;99734.18;1791339;79;20962;-40
2022/10/22 06:23:59;;;;;;;15.53;8.13;;;;;;;6.83;56.89;99724.27;1791319;79;21061;-40
2022/10/22 06:26:25;;;;;;;10.60;7.50;;;;;;;6.85;57.15;99724.75;1791483;79;21037;-40
2022/10/22 06:28:55;;;;;;;14.35;6.95;;;;;;;6.87;56.74;99719.25;1791309;80;21203;-40
2022/10/22 06:31:23;;;;;;;15.28;7.85;;;;;;;6.91;57.08;99720.20;1791287;80;21562;-40
2022/10/22 06:33:50;;;;;;;13.20;7.85;;;;;;;6.95;56.60;99723.03;1791508;80;20883;-40
2022/10/22 06:36:22;;;;;;;13.83;7.35;;;;;;;6.95;56.61;99727.07;1791494;80;20953;-40
2022/10/22 06:38:52;;;;;;;12.65;7.50;;;;;;;6.97;56.82;99724.85;1791483;79;21033;-40
2022/10/22 06:41:19;;;;;;;11.50;7.78;;;;;;;6.99;56.92;99711.27;1791657;79;21770;-40
2022/10/22 06:43:47;;;;;;;13.95;7.78;;;;;;;7.06;56.94;99708.62;1791424;79;20910;-40
2022/10/22 06:46:16;;;;;;;9.98;6.72;;;;;;;7.12;56.88;99699.99;1791628;79;21527;-40
2022/10/22 06:48:48;;;;;;;11.25;6.70;;;;;;;7.17;56.66;99702.50;1791790;80;21033;-40
2022/10/22 06:51:16;;;;;;;14.28;6.97;;;;;;;7.19;56.72;99697.58;1791881;80;20986;-40
2022/10/22 06:53:43;;;;;;;11.95;7.95;;;;;;;7.24;56.57;99683.91;1791434;80;21247;-40
2022/10/22 06:56:12;;;;;;;16.42;8.10;;;;;;;7.29;56.75;99683.70;1791465;79;21018;-40
2022/10/22 06:58:38;;;;;;;13.93;7.57;;;;;;;7.31;56.59;99688.19;1792040;79;21717;-40
2022/10/22 07:01:11;;;;;;;13.08;7.62;;;;;;;7.33;56.34;99674.39;1791591;80;21009;-40
2022/10/22 07:03:38;;;;;;;11.65;7.10;;;;;;;7.34;56.24;99676.77;1791429;80;21021;-40
2022/10/22 07:06:09;;;;;;;12.88;7.28;;;;;;;7.38;56.64;99674.98;1791470;80;21164;-40
2022/10/22 07:08:35;;;;;;;14.85;7.62;;;;;;;7.42;56.69;99669.70;1791755;80;20962;-40
2022/10/22 07:11:09;;;;;;;13.72;7.25;;;;;;;7.49;56.48;99670.53;1791591;79;21779;-40
2022/10/22 07:13:36;;;;;;;13.48;7.22;;;;;;;7.53;56.39;99670.09;1791525;80;21049;-40
2022/10/22 07:16:04;;;;;;;16.00;7.60;;;;;;;7.54;55.86;99675.17;1791341;80;20998;-40
2022/10/22 07:18:31;;;;;;;14.53;7.30;;;;;;;7.53;56.02;99684.94;1791813;79;21241;-40
2022/10/22 07:20:59;;;;;;;13.55;7.50;;;;;;;7.52;55.83;99694.14;1791394;79;21013;-40
2022/10/22 07:23:28;;;;;;;13.08;7.47;;;;;;;7.49;56.19;99686.72;1791438;80;21027;-40
2022/10/22 07:25:54;;;;;;;14.63;7.20;;;;;;;7.50;56.33;99682.91;1791247;80;21576;-40
2022/10/22 07:28:21;;;;;;;11.05;7.08;;;;;;;7.54;56.55;99682.47;1791377;80;20994;-40
2022/10/22 07:30:48;;;;;;;11.20;7.08;;;;;;;7.56;56.62;99682.35;1791397;80;21089;-40
2022/10/22 07:33:15;;;;;;;12.05;6.90;;;;;;;7.63;56.95;99688.58;1791323;80;21578;-40
2022/10/22 07:35:42;;;;;;;11.78;6.75;;;;;;;7.69;56.42;99688.61;1787749;80;20915;-40
2022/10/22 07:38:09;;;;;;;11.30;7.55;;;;;;;7.68;56.20;99685.11;1791599;80;21044;-40
2022/10/22 07:40:35;;;;;;;13.68;7.03;;;;;;;7.68;56.55;99681.06;1791783;79;21005;-40
2022/10/22 08:36:46;;;;;;;14.00;6.35;;;;;;;7.93;57.72;99670.34;1786156;77;21046;-40
2022/10/22 08:39:13;;;;;;;8.75;5.95;;;;;;;7.95;57.77;99676.97;1810993;79;21000;-40
2022/10/22 08:41:52;;;;;;;11.48;6.30;;;;;;;8.02;57.85;99673.17;1815908;78;21050;-40
2022/10/22 08:44:57;;;;;;;11.40;6.15;;;;;;;8.11;57.65;99674.42;1813155;79;21238;-40
2022/10/22 08:47:52;;;;;;;11.68;6.35;;;;;;;8.15;57.65;99676.13;1816084;79;20976;-40
2022/10/22 08:50:33;;;;;;;11.60;6.22;;;;;;;8.17;57.65;99675.23;1751496;79;21797;-40
2022/10/22 08:53:06;;;;;;;10.55;6.03;;;;;;;8.19;57.67;99663.52;1803734;79;21076;-41
2022/10/22 08:55:33;;;;;;;13.90;6.40;;;;;;;8.25;57.97;99644.63;1803967;79;21068;-40
2022/10/22 08:58:23;;;;;;;9.40;5.85;;;;;;;8.34;57.73;99644.54;1803944;79;21800;-40
2022/10/22 09:01:15;;;;;;;10.05;6.53;;;;;;;8.38;57.35;99645.44;1803881;79;21505;-40
2022/10/22 09:03:56;;;;;;;10.32;5.97;;;;;;;8.39;57.34;99644.88;1804371;79;21000;-40
2022/10/22 09:06:27;;;;;;;11.93;6.72;;;;;;;8.43;57.64;99651.97;1804059;79;21049;-40
2022/10/22 09:08:54;;;;;;;10.95;6.08;;;;;;;8.47;57.32;99649.41;1803545;79;20945;-40
2022/10/22 09:11:32;;;;;;;11.25;6.05;;;;;;;8.49;57.42;99640.38;1781408;79;21127;-40
2022/10/22 09:14:00;;;;;;;11.85;6.25;;;;;;;8.53;57.40;99636.66;1803846;79;20917;-41
2022/10/22 09:17:03;;;;;;;10.45;5.92;;;;;;;8.57;57.14;99631.36;1803793;79;21517;-40
2022/10/22 09:20:07;;;;;;;12.18;6.20;;;;;;;8.60;57.16;99619.33;1803917;79;20992;-40
2022/10/22 09:23:13;;;;;;;10.48;6.10;;;;;;;8.66;57.22;99616.62;1803764;79;20972;-40
2022/10/22 09:25:40;;;;;;;9.13;6.10;;;;;;;8.74;56.89;99613.56;1803927;79;21526;-41
2022/10/22 09:28:08;;;;;;;8.48;6.00;;;;;;;8.80;56.97;99616.26;1781518;79;20894;-40
2022/10/22 09:30:37;;;;;;;11.15;6.17;;;;;;;8.88;56.98;99612.63;1803744;79;21534;-40
2022/10/22 09:33:15;;;;;;;10.48;6.45;;;;;;;8.93;56.83;99608.34;1798578;79;21056;-40
2022/10/22 09:35:56;;;;;;;9.40;6.40;;;;;;;9.01;56.99;99599.29;1803946;79;20874;-40
2022/10/22 09:38:27;;;;;;;10.95;5.55;;;;;;;9.08;56.78;99591.39;1799371;78;21788;-40
2022/10/22 09:40:57;;;;;;;10.45;5.62;;;;;;;9.16;56.49;99594.51;1806677;79;21033;-41
2022/10/22 09:43:25;;;;;;;10.00;5.97;;;;;;;9.26;56.65;99589.73;1807294;79;20996;-40
2022/10/22 09:46:01;;;;;;;13.13;6.35;;;;;;;9.32;56.10;99596.48;1806705;79;21017;-40
2022/10/22 09:48:36;;;;;;;12.53;6.53;;;;;;;9.35;55.93;99601.19;1806896;79;20978;-41
2022/10/22 09:51:21;;;;;;;11.68;6.75;;;;;;;9.37;56.20;99608.41;1806923;79;21220;-41
2022/10/22 09:53:57;;;;;;;16.10;9.50;;;;;;;9.44;56.27;99609.97;1806796;79;20905;-41
2022/10/22 09:56:34;;;;;;;50.73;30.23;;;;;;;9.48;56.02;99618.41;1807331;79;20964;-41
2022/10/22 09:59:01;;;;;;;14.85;8.35;;;;;;;9.51;56.04;99635.30;1806911;79;20966;-41
2022/10/22 10:01:35;;;;;;;16.93;8.75;;;;;;;9.52;55.78;99642.85;1807291;79;21514;-41
2022/10/22 10:04:10;;;;;;;10.65;6.40;;;;;;;9.51;55.97;99635.30;1785665;79;21172;-41
2022/10/22 10:06:39;;;;;;;11.83;7.78;;;;;;;9.48;55.87;99631.15;1806518;79;21007;-41
2022/10/22 10:09:23;;;;;;;9.40;6.72;;;;;;;9.49;56.38;99618.60;1807048;79;21586;-41
2022/10/22 10:12:18;;;;;;;8.60;6.35;;;;;;;9.57;56.40;99614.19;1807324;79;21538;-41
2022/10/22 10:14:57;;;;;;;11.22;6.97;;;;;;;9.64;56.29;99598.12;1807048;79;21009;-41
2022/10/22 10:17:33;;;;;;;10.80;7.08;;;;;;;9.65;56.24;99584.81;1807265;79;21131;-41
2022/10/22 10:20:23;;;;;;;10.10;6.55;;;;;;;9.68;56.48;99588.19;1806804;79;20914;-41
2022/10/22 10:23:20;;;;;;;12.73;6.80;;;;;;;9.72;56.29;99601.81;1806719;79;21502;-41
2022/10/22 10:26:25;;;;;;;10.72;7.03;;;;;;;9.74;56.15;99600.31;1762693;79;20944;-41
2022/10/22 10:29:21;;;;;;;9.73;6.80;;;;;;;9.77;56.61;99586.67;1794236;79;21502;-41
2022/10/22 10:32:09;;;;;;;11.28;6.85;;;;;;;9.84;56.55;99591.69;1759774;79;21132;-41
2022/10/22 10:34:44;;;;;;;13.50;7.12;;;;;;;9.93;56.10;99603.13;1807043;79;21004;-41
2022/10/22 10:37:20;;;;;;;9.85;6.85;;;;;;;9.98;56.05;99615.06;1807138;79;20972;-41
2022/10/22 10:40:14;;;;;;;13.08;6.80;;;;;;;10.02;55.93;99605.09;1806762;79;20978;-41
2022/10/22 10:43:01;;;;;;;19.07;10.25;;;;;;;10.05;56.04;99604.98;1807004;79;21040;-41
2022/10/22 10:46:06;;;;;;;11.85;8.08;;;;;;;10.08;55.93;99596.70;1807201;79;21243;-41
2022/10/22 10:49:02;;;;;;;14.45;7.75;;;;;;;10.04;55.61;99600.13;1808011;78;20965;-41
2022/10/22 10:51:53;;;;;;;11.93;7.58;;;;;;;9.96;55.88;99594.89;1807150;79;20965;-41
2022/10/22 10:54:48;;;;;;;13.08;7.62;;;;;;;9.97;56.39;99590.45;1807256;78;20945;-41
2022/10/22 10:57:40;;;;;;;13.48;7.20;;;;;;;10.06;56.48;99582.17;1807271;79;21091;-41
2022/10/22 11:00:16;;;;;;;12.80;8.45;;;;;;;10.14;56.28;99572.28;1807209;78;20921;-41
2022/10/22 11:03:11;;;;;;;11.65;7.33;;;;;;;10.19;55.77;99579.61;1806534;78;20995;-41
2022/10/22 11:05:43;;;;;;;12.95;7.35;;;;;;;10.22;55.75;99579.47;1807056;79;21328;-41
2022/10/22 11:08:34;;;;;;;12.25;7.97;;;;;;;10.21;55.51;99580.06;1807077;79;21081;-41
2022/10/22 11:11:22;;;;;;;15.58;9.35;;;;;;;10.22;55.77;99572.13;1807089;79;20977;-44
2022/10/22 11:13:53;;;;;;;14.40;8.33;;;;;;;10.33;55.97;99579.16;1806055;79;21335;-44
2022/10/22 11:16:42;;;;;;;17.45;7.95;;;;;;;10.43;55.61;99571.84;1801267;79;20964;-44
2022/10/22 11:19:24;;;;;;;;;;;;;;;10.58;55.80;99563.45;1809844;79;21546;-43
2022/10/22 11:22:16;;;;;;;11.83;7.45;;;;;;;10.71;55.32;99549.41;1807186;79;20142;-44
2022/10/22 11:24:52;;;;;;;13.43;7.25;;;;;;;10.87;55.20;99568.34;1807179;79;20957;-44
2022/10/22 11:27:41;;;;;;;13.58;8.10;;;;;;;11.04;54.83;99554.91;1807098;79;21227;-40
2022/10/22 11:30:15;;;;;;;12.68;7.87;;;;;;;11.16;54.11;99549.36;1807194;79;21005;-40
2022/10/22 11:32:45;;;;;;;9.03;7.25;;;;;;;11.22;53.90;99537.08;1807106;79;21028;-41
2022/10/22 11:35:15;;;;;;;9.65;6.60;;;;;;;11.23;54.18;99529.16;1807451;79;20996;-41
2022/10/22 11:37:43;;;;;;;17.48;7.28;;;;;;;11.30;54.01;99531.98;1807113;79;21009;-41
2022/10/22 11:40:38;;;;;;;12.78;7.80;;;;;;;11.38;53.37;99525.53;1792786;78;21134;-41
2022/10/22 11:43:09;;;;;;;11.60;7.12;;;;;;;11.46;53.36;99516.39;1799152;78;21429;-41
2022/10/22 11:45:41;;;;;;;12.33;7.08;;;;;;;11.62;53.43;99514.89;1820892;78;21493;-41
2022/10/22 11:48:18;;;;;;;11.30;6.80;;;;;;;11.87;53.14;99516.13;1824749;78;21510;-41
2022/10/22 11:51:00;;;;;;;27.40;17.73;;;;;;;12.13;52.20;99511.30;1824643;78;21024;-41
2022/10/22 11:53:34;;;;;;;13.83;7.45;;;;;;;12.31;51.51;99506.11;1824559;78;23195;-41
2022/10/22 11:56:11;;;;;;;9.60;6.78;;;;;;;12.35;51.53;99510.44;1824764;78;20948;-41
2022/10/22 11:58:43;;;;;;;10.08;6.62;;;;;;;12.37;51.50;99497.28;1822537;78;21020;-41
2022/10/22 12:01:16;;;;;;;12.23;8.28;;;;;;;12.36;51.46;99490.27;1824787;78;21015;-41
2022/10/22 12:03:53;;;;;;;15.03;7.65;;;;;;;12.38;51.34;99490.70;1824546;78;21091;-41
2022/10/22 12:06:26;;;;;;;15.32;6.85;;;;;;;12.35;51.23;99503.64;1824615;78;21110;-41
2022/10/22 12:09:01;;;;;;;17.77;9.28;;;;;;;12.23;51.35;99502.52;1792525;78;20992;-41
2022/10/22 12:11:46;;;;;;;10.55;7.00;;;;;;;12.15;51.63;99500.86;1824757;77;20936;-41
2022/10/22 12:14:53;;;;;;;11.30;6.65;;;;;;;12.17;51.82;99490.39;1824496;78;20996;-41
2022/10/22 12:17:21;;;;;;;12.50;7.30;;;;;;;12.26;51.88;99479.23;1748388;81;21537;-41
2022/10/22 12:20:07;;;;;;;14.30;7.20;;;;;;;12.38;51.94;99479.82;1812184;78;21226;-41
2022/10/22 12:22:38;;;;;;;8.75;6.35;;;;;;;12.53;51.75;99484.88;1824848;78;20913;-41
2022/10/22 12:25:21;;;;;;;10.08;6.72;;;;;;;12.68;51.43;99481.75;1823735;77;20975;-41
2022/10/22 12:27:58;;;;;;;9.70;6.87;;;;;;;12.78;51.58;99486.54;1787574;78;21014;-41
2022/10/22 12:30:29;;;;;;;13.25;9.85;;;;;;;12.89;50.84;99491.52;1825088;78;21475;-41
2022/10/22 12:33:02;;;;;;;14.07;7.45;;;;;;;12.91;51.01;99507.69;1824621;77;21117;-41
2022/10/22 12:35:31;;;;;;;8.50;6.70;;;;;;;12.89;50.99;99506.48;1824681;78;20996;-41
2022/10/22 12:38:02;;;;;;;11.90;7.33;;;;;;;12.83;50.89;99507.98;1824798;78;20940;-41
2022/10/22 12:40:33;;;;;;;9.98;6.33;;;;;;;12.75;51.17;99500.30;1810844;78;21083;-41
2022/10/22 12:43:25;;;;;;;10.00;7.10;;;;;;;12.71;51.43;99499.47;1810645;79;21071;-41
2022/10/22 12:45:52;;;;;;;14.38;6.87;;;;;;;12.68;51.55;99496.71;1809841;79;21131;-41
2022/10/22 12:48:34;;;;;;;14.13;8.80;;;;;;;12.54;51.82;99486.41;1810526;79;21060;-41
2022/10/22 12:51:03;;;;;;;13.85;8.73;;;;;;;12.44;52.17;99474.84;1810626;79;21530;-41
2022/10/22 12:53:40;;;;;;;14.07;7.40;;;;;;;12.33;52.34;99482.07;1810578;79;22132;-41
2022/10/22 12:56:14;;;;;;;12.20;7.30;;;;;;;12.20;52.38;99481.48;1810448;79;21027;-41
2022/10/22 12:59:13;;;;;;;10.98;7.58;;;;;;;12.09;52.55;99487.37;1810457;79;21066;-41